Arcola, Indiana
Current Conditions -  °F | °C
As of 12:54 AM on Thursday 27 Nov 2014 (Local Time) from KFWA Reporting Station
Overcast Overcast  
Wind Chill: 20°   Ceiling: 3000
Heat Index: 28°   Visibility: 8mi
Dew Point: 22°   Wind: 8mph
Humidity: 78%   Direction: 330°NNW
Pressure: 30.12"   Gusts: NA
Location:  41.1°N, 85.29°W
Report Text: KFWA 270554Z 33007KT 8SM OVC030 M02/M06 A3012 RMK AO2 SLP208 T10221056 11017 21022 51006
Loading
Personal Weather Stations






























Interactive Weather Map New forecast layout! Learn more

10-Day Weather Forecast

Advertisements
Track Severe Weather on mobile